sensor_id;sensor_type;location;lat;lon;timestamp;pressure;altitude;pressure_sealevel;temperature
51693;BMP280;37777;53.066;21.638;2024-01-25T00:02:48;99106.75;;;4.87
51693;BMP280;37777;53.066;21.638;2024-01-25T00:09:50;99121.50;;;4.81
51693;BMP280;37777;53.066;21.638;2024-01-25T00:25:15;99125.34;;;4.71
51693;BMP280;37777;53.066;21.638;2024-01-25T00:32:16;99130.72;;;4.71
51693;BMP280;37777;53.066;21.638;2024-01-25T00:39:18;99132.16;;;4.69
51693;BMP280;37777;53.066;21.638;2024-01-25T00:46:20;99127.44;;;4.66
51693;BMP280;37777;53.066;21.638;2024-01-25T00:53:21;99129.66;;;4.64
51693;BMP280;37777;53.066;21.638;2024-01-25T01:00:23;99127.25;;;4.58
51693;BMP280;37777;53.066;21.638;2024-01-25T01:07:25;99123.41;;;4.59
51693;BMP280;37777;53.066;21.638;2024-01-25T01:14:27;99122.50;;;4.55
51693;BMP280;37777;53.066;21.638;2024-01-25T01:21:28;99119.50;;;4.57
51693;BMP280;37777;53.066;21.638;2024-01-25T01:28:30;99126.63;;;4.53
51693;BMP280;37777;53.066;21.638;2024-01-25T01:35:31;99119.72;;;4.52
51693;BMP280;37777;53.066;21.638;2024-01-25T01:42:33;99114.66;;;4.50
51693;BMP280;37777;53.066;21.638;2024-01-25T01:49:47;99121.94;;;4.50
51693;BMP280;37777;53.066;21.638;2024-01-25T01:56:49;99113.75;;;4.46
51693;BMP280;37777;53.066;21.638;2024-01-25T02:03:54;99105.28;;;4.44
51693;BMP280;37777;53.066;21.638;2024-01-25T02:10:57;99105.09;;;4.49
51693;BMP280;37777;53.066;21.638;2024-01-25T02:17:59;99111.78;;;4.43
51693;BMP280;37777;53.066;21.638;2024-01-25T02:25:01;99100.47;;;4.37
51693;BMP280;37777;53.066;21.638;2024-01-25T02:32:03;99110.19;;;4.42
51693;BMP280;37777;53.066;21.638;2024-01-25T02:39:05;99114.16;;;4.36
51693;BMP280;37777;53.066;21.638;2024-01-25T02:46:07;99111.97;;;4.38
51693;BMP280;37777;53.066;21.638;2024-01-25T02:53:09;99121.25;;;4.40
51693;BMP280;37777;53.066;21.638;2024-01-25T03:00:11;99125.34;;;4.38
51693;BMP280;37777;53.066;21.638;2024-01-25T03:07:12;99132.16;;;4.35
51693;BMP280;37777;53.066;21.638;2024-01-25T03:14:14;99148.34;;;4.39
51693;BMP280;37777;53.066;21.638;2024-01-25T03:21:15;99149.31;;;4.34
51693;BMP280;37777;53.066;21.638;2024-01-25T03:28:17;99158.91;;;4.35
51693;BMP280;37777;53.066;21.638;2024-01-25T03:35:20;99161.47;;;4.32
51693;BMP280;37777;53.066;21.638;2024-01-25T03:42:21;99167.47;;;4.29
51693;BMP280;37777;53.066;21.638;2024-01-25T03:49:23;99160.53;;;4.28
51693;BMP280;37777;53.066;21.638;2024-01-25T03:56:26;99170.47;;;4.27
51693;BMP280;37777;53.066;21.638;2024-01-25T04:03:28;99177.72;;;4.27
51693;BMP280;37777;53.066;21.638;2024-01-25T04:10:29;99175.56;;;4.20
51693;BMP280;37777;53.066;21.638;2024-01-25T04:17:31;99187.31;;;4.28
51693;BMP280;37777;53.066;21.638;2024-01-25T04:24:32;99186.06;;;4.25
51693;BMP280;37777;53.066;21.638;2024-01-25T04:31:35;99187.66;;;4.26
51693;BMP280;37777;53.066;21.638;2024-01-25T04:38:43;99199.38;;;4.21
51693;BMP280;37777;53.066;21.638;2024-01-25T04:45:44;99204.72;;;4.21
51693;BMP280;37777;53.066;21.638;2024-01-25T04:52:46;99199.38;;;4.21
51693;BMP280;37777;53.066;21.638;2024-01-25T04:59:47;99210.25;;;4.16
51693;BMP280;37777;53.066;21.638;2024-01-25T05:06:49;99210.25;;;4.16
51693;BMP280;37777;53.066;21.638;2024-01-25T05:13:50;99211.34;;;4.15
51693;BMP280;37777;53.066;21.638;2024-01-25T05:20:52;99222.66;;;4.21
51693;BMP280;37777;53.066;21.638;2024-01-25T05:27:54;99223.75;;;4.20
51693;BMP280;37777;53.066;21.638;2024-01-25T05:34:56;99233.25;;;4.17
51693;BMP280;37777;53.066;21.638;2024-01-25T05:41:57;99232.78;;;4.15
51693;BMP280;37777;53.066;21.638;2024-01-25T05:48:59;99237.97;;;4.12
51693;BMP280;37777;53.066;21.638;2024-01-25T05:56:00;99241.63;;;4.07
51693;BMP280;37777;53.066;21.638;2024-01-25T06:03:02;99246.97;;;4.07
51693;BMP280;37777;53.066;21.638;2024-01-25T06:10:04;99257.38;;;4.08
51693;BMP280;37777;53.066;21.638;2024-01-25T06:17:06;99264.16;;;4.06
51693;BMP280;37777;53.066;21.638;2024-01-25T06:24:08;99275.31;;;4.08
51693;BMP280;37777;53.066;21.638;2024-01-25T06:31:09;99277.53;;;4.06
51693;BMP280;37777;53.066;21.638;2024-01-25T06:38:13;99277.53;;;4.06
51693;BMP280;37777;53.066;21.638;2024-01-25T06:45:14;99277.84;;;4.04
51693;BMP280;37777;53.066;21.638;2024-01-25T06:52:16;99292.31;;;4.12
51693;BMP280;37777;53.066;21.638;2024-01-25T06:59:17;99312.81;;;4.08
51693;BMP280;37777;53.066;21.638;2024-01-25T07:06:19;99318.94;;;4.08
51693;BMP280;37777;53.066;21.638;2024-01-25T07:13:21;99325.88;;;4.10
51693;BMP280;37777;53.066;21.638;2024-01-25T07:20:24;99324.94;;;4.05
51693;BMP280;37777;53.066;21.638;2024-01-25T07:27:25;99338.00;;;4.07
51693;BMP280;37777;53.066;21.638;2024-01-25T07:34:27;99346.47;;;4.09
51693;BMP280;37777;53.066;21.638;2024-01-25T07:41:28;99360.78;;;4.13
51693;BMP280;37777;53.066;21.638;2024-01-25T07:48:30;99358.13;;;4.13
51693;BMP280;37777;53.066;21.638;2024-01-25T07:55:32;99373.56;;;4.16
51693;BMP280;37777;53.066;21.638;2024-01-25T08:02:35;99374.00;;;4.18
51693;BMP280;37777;53.066;21.638;2024-01-25T08:09:36;99386.63;;;4.18
51693;BMP280;37777;53.066;21.638;2024-01-25T08:16:38;99393.41;;;4.15
51693;BMP280;37777;53.066;21.638;2024-01-25T08:23:40;99391.03;;;4.14
51693;BMP280;37777;53.066;21.638;2024-01-25T08:30:41;99400.78;;;4.18
51693;BMP280;37777;53.066;21.638;2024-01-25T08:37:43;99410.72;;;4.18
51693;BMP280;37777;53.066;21.638;2024-01-25T08:44:45;99421.75;;;4.16
51693;BMP280;37777;53.066;21.638;2024-01-25T08:51:52;99439.19;;;4.22
51693;BMP280;37777;53.066;21.638;2024-01-25T08:58:53;99428.19;;;4.24
51693;BMP280;37777;53.066;21.638;2024-01-25T09:05:55;99447.69;;;4.33
51693;BMP280;37777;53.066;21.638;2024-01-25T09:13:06;99458.69;;;4.32
51693;BMP280;37777;53.066;21.638;2024-01-25T09:20:08;99463.59;;;4.30
51693;BMP280;37777;53.066;21.638;2024-01-25T09:27:10;99474.31;;;4.30
51693;BMP280;37777;53.066;21.638;2024-01-25T09:34:12;99490.69;;;4.28
51693;BMP280;37777;53.066;21.638;2024-01-25T09:41:14;99509.59;;;4.23
51693;BMP280;37777;53.066;21.638;2024-01-25T10:04:59;99598.75;;;4.06
51693;BMP280;37777;53.066;21.638;2024-01-25T10:12:01;99603.81;;;3.99
51693;BMP280;37777;53.066;21.638;2024-01-25T10:19:20;99623.28;;;3.90
51693;BMP280;37777;53.066;21.638;2024-01-25T10:26:22;99645.00;;;3.80
51693;BMP280;37777;53.066;21.638;2024-01-25T10:33:24;99652.53;;;3.69
51693;BMP280;37777;53.066;21.638;2024-01-25T10:40:27;99652.50;;;3.61
51693;BMP280;37777;53.066;21.638;2024-01-25T10:47:29;99659.06;;;3.46
51693;BMP280;37777;53.066;21.638;2024-01-25T10:54:36;99685.06;;;3.22
51693;BMP280;37777;53.066;21.638;2024-01-25T11:01:37;99682.16;;;3.10
51693;BMP280;37777;53.066;21.638;2024-01-25T11:08:42;99685.25;;;3.26
51693;BMP280;37777;53.066;21.638;2024-01-25T11:15:44;99696.13;;;3.30
51693;BMP280;37777;53.066;21.638;2024-01-25T11:22:46;99714.22;;;3.33
51693;BMP280;37777;53.066;21.638;2024-01-25T11:29:48;99715.84;;;3.43
51693;BMP280;37777;53.066;21.638;2024-01-25T11:36:49;99752.06;;;3.49
51693;BMP280;37777;53.066;21.638;2024-01-25T11:43:52;99755.72;;;3.30
51693;BMP280;37777;53.066;21.638;2024-01-25T11:50:54;99768.66;;;3.37
51693;BMP280;37777;53.066;21.638;2024-01-25T11:57:55;99799.47;;;3.34
51693;BMP280;37777;53.066;21.638;2024-01-25T12:04:57;99784.09;;;3.40
51693;BMP280;37777;53.066;21.638;2024-01-25T12:12:02;99793.28;;;3.48
51693;BMP280;37777;53.066;21.638;2024-01-25T12:19:04;99809.31;;;3.48
51693;BMP280;37777;53.066;21.638;2024-01-25T12:26:08;99818.78;;;3.54
51693;BMP280;37777;53.066;21.638;2024-01-25T12:33:10;99816.47;;;3.52
51693;BMP280;37777;53.066;21.638;2024-01-25T12:40:16;99830.41;;;3.49
51693;BMP280;37777;53.066;21.638;2024-01-25T12:51:24;99838.56;;;3.44
51693;BMP280;37777;53.066;21.638;2024-01-25T13:08:55;99880.00;;;3.33
51693;BMP280;37777;53.066;21.638;2024-01-25T13:15:59;99888.16;;;3.28
51693;BMP280;37777;53.066;21.638;2024-01-25T13:23:03;99895.72;;;3.26
51693;BMP280;37777;53.066;21.638;2024-01-25T13:30:05;99900.56;;;3.24
51693;BMP280;37777;53.066;21.638;2024-01-25T13:37:08;99909.28;;;3.15
51693;BMP280;37777;53.066;21.638;2024-01-25T13:44:10;99922.25;;;3.08
51693;BMP280;37777;53.066;21.638;2024-01-25T13:51:12;99936.22;;;3.05
51693;BMP280;37777;53.066;21.638;2024-01-25T13:58:14;99954.13;;;3.04
51693;BMP280;37777;53.066;21.638;2024-01-25T14:05:15;99974.22;;;3.02
51693;BMP280;37777;53.066;21.638;2024-01-25T14:12:17;99991.84;;;3.03
51693;BMP280;37777;53.066;21.638;2024-01-25T14:19:19;100009.28;;;3.00
51693;BMP280;37777;53.066;21.638;2024-01-25T14:26:22;100016.19;;;3.01
51693;BMP280;37777;53.066;21.638;2024-01-25T14:33:23;100035.53;;;2.98
51693;BMP280;37777;53.066;21.638;2024-01-25T14:40:25;100057.59;;;2.90
51693;BMP280;37777;53.066;21.638;2024-01-25T14:47:47;100067.59;;;2.84
51693;BMP280;37777;53.066;21.638;2024-01-25T14:54:48;100073.00;;;2.79
51693;BMP280;37777;53.066;21.638;2024-01-25T15:10:18;100063.75;;;2.58
51693;BMP280;37777;53.066;21.638;2024-01-25T15:17:20;100082.50;;;2.52
51693;BMP280;37777;53.066;21.638;2024-01-25T15:24:40;100095.44;;;2.45
51693;BMP280;37777;53.066;21.638;2024-01-25T15:31:42;100104.53;;;2.44
51693;BMP280;37777;53.066;21.638;2024-01-25T15:38:43;100127.34;;;2.36
51693;BMP280;37777;53.066;21.638;2024-01-25T15:45:47;100141.78;;;2.35
51693;BMP280;37777;53.066;21.638;2024-01-25T15:52:49;100150.44;;;2.27
51693;BMP280;37777;53.066;21.638;2024-01-25T16:08:12;100176.78;;;2.15
51693;BMP280;37777;53.066;21.638;2024-01-25T16:15:14;100194.88;;;2.18
51693;BMP280;37777;53.066;21.638;2024-01-25T16:22:16;100199.72;;;2.16
51693;BMP280;37777;53.066;21.638;2024-01-25T16:29:17;100212.78;;;2.17
51693;BMP280;37777;53.066;21.638;2024-01-25T16:36:20;100209.63;;;2.15
51693;BMP280;37777;53.066;21.638;2024-01-25T16:43:21;100224.53;;;2.16
51693;BMP280;37777;53.066;21.638;2024-01-25T16:50:23;100237.88;;;2.16
51693;BMP280;37777;53.066;21.638;2024-01-25T16:57:24;100257.38;;;2.17
51693;BMP280;37777;53.066;21.638;2024-01-25T17:04:26;100260.06;;;2.17
51693;BMP280;37777;53.066;21.638;2024-01-25T17:11:28;100276.38;;;2.15
51693;BMP280;37777;53.066;21.638;2024-01-25T17:18:30;100292.63;;;2.14
51693;BMP280;37777;53.066;21.638;2024-01-25T17:25:32;100300.38;;;2.15
51693;BMP280;37777;53.066;21.638;2024-01-25T17:32:34;100312.41;;;2.13
51693;BMP280;37777;53.066;21.638;2024-01-25T17:39:35;100312.41;;;2.13
51693;BMP280;37777;53.066;21.638;2024-01-25T17:46:38;100322.06;;;2.09
51693;BMP280;37777;53.066;21.638;2024-01-25T18:02:03;100342.94;;;2.01
51693;BMP280;37777;53.066;21.638;2024-01-25T18:09:07;100348.03;;;1.98
51693;BMP280;37777;53.066;21.638;2024-01-25T18:16:10;100357.59;;;2.04
51693;BMP280;37777;53.066;21.638;2024-01-25T18:23:11;100354.69;;;2.00
51693;BMP280;37777;53.066;21.638;2024-01-25T18:30:13;100374.41;;;2.05
51693;BMP280;37777;53.066;21.638;2024-01-25T18:37:15;100379.28;;;1.97
51693;BMP280;37777;53.066;21.638;2024-01-25T18:44:16;100388.34;;;1.96
51693;BMP280;37777;53.066;21.638;2024-01-25T18:51:18;100400.91;;;1.96
51693;BMP280;37777;53.066;21.638;2024-01-25T18:58:19;100387.53;;;2.01
51693;BMP280;37777;53.066;21.638;2024-01-25T19:05:21;100419.00;;;2.04
51693;BMP280;37777;53.066;21.638;2024-01-25T19:12:23;100405.06;;;2.07
51693;BMP280;37777;53.066;21.638;2024-01-25T19:19:25;100419.75;;;2.10
51693;BMP280;37777;53.066;21.638;2024-01-25T19:26:26;100434.19;;;2.09
51693;BMP280;37777;53.066;21.638;2024-01-25T19:33:30;100445.66;;;2.09
51693;BMP280;37777;53.066;21.638;2024-01-25T19:40:35;100449.13;;;2.05
51693;BMP280;37777;53.066;21.638;2024-01-25T19:47:36;100467.06;;;1.99
51693;BMP280;37777;53.066;21.638;2024-01-25T19:54:38;100482.31;;;1.93
51693;BMP280;37777;53.066;21.638;2024-01-25T20:01:40;100490.41;;;1.83
51693;BMP280;37777;53.066;21.638;2024-01-25T20:08:42;100490.72;;;1.76
51693;BMP280;37777;53.066;21.638;2024-01-25T20:15:44;100492.31;;;1.77
51693;BMP280;37777;53.066;21.638;2024-01-25T20:22:45;100500.34;;;1.72
51693;BMP280;37777;53.066;21.638;2024-01-25T20:29:47;100495.81;;;1.73
51693;BMP280;37777;53.066;21.638;2024-01-25T20:36:49;100508.38;;;1.67
51693;BMP280;37777;53.066;21.638;2024-01-25T20:43:50;100530.81;;;1.61
51693;BMP280;37777;53.066;21.638;2024-01-25T20:50:51;100531.66;;;1.51
51693;BMP280;37777;53.066;21.638;2024-01-25T20:57:53;100539.09;;;1.59
51693;BMP280;37777;53.066;21.638;2024-01-25T21:04:55;100541.47;;;1.61
51693;BMP280;37777;53.066;21.638;2024-01-25T21:11:56;100548.41;;;1.62
51693;BMP280;37777;53.066;21.638;2024-01-25T21:18:58;100545.75;;;1.57
51693;BMP280;37777;53.066;21.638;2024-01-25T21:26:03;100563.66;;;1.51
51693;BMP280;37777;53.066;21.638;2024-01-25T21:33:04;100570.88;;;1.45
51693;BMP280;37777;53.066;21.638;2024-01-25T21:40:06;100577.28;;;1.44
51693;BMP280;37777;53.066;21.638;2024-01-25T21:47:08;100593.28;;;1.44
51693;BMP280;37777;53.066;21.638;2024-01-25T21:54:09;100584.50;;;1.44
51693;BMP280;37777;53.066;21.638;2024-01-25T22:01:11;100595.16;;;1.44
51693;BMP280;37777;53.066;21.638;2024-01-25T22:08:12;100595.94;;;1.44
51693;BMP280;37777;53.066;21.638;2024-01-25T22:15:16;100603.16;;;1.39
51693;BMP280;37777;53.066;21.638;2024-01-25T22:22:18;100607.75;;;1.33
51693;BMP280;37777;53.066;21.638;2024-01-25T22:29:20;100627.19;;;1.28
51693;BMP280;37777;53.066;21.638;2024-01-25T22:36:21;100626.13;;;1.29
51693;BMP280;37777;53.066;21.638;2024-01-25T22:43:24;100638.13;;;1.27
51693;BMP280;37777;53.066;21.638;2024-01-25T22:50:30;100660.28;;;1.17
51693;BMP280;37777;53.066;21.638;2024-01-25T22:57:31;100650.41;;;1.12
51693;BMP280;37777;53.066;21.638;2024-01-25T23:04:33;100641.88;;;1.05
51693;BMP280;37777;53.066;21.638;2024-01-25T23:11:34;100657.88;;;1.00
51693;BMP280;37777;53.066;21.638;2024-01-25T23:18:36;100664.81;;;0.96
51693;BMP280;37777;53.066;21.638;2024-01-25T23:25:39;100678.13;;;0.96
51693;BMP280;37777;53.066;21.638;2024-01-25T23:32:40;100695.97;;;1.06
51693;BMP280;37777;53.066;21.638;2024-01-25T23:39:42;100697.31;;;1.08
51693;BMP280;37777;53.066;21.638;2024-01-25T23:46:44;100710.94;;;1.12
51693;BMP280;37777;53.066;21.638;2024-01-25T23:53:45;100720.78;;;1.16
